Terminal Aerodrome Forecast
Issued by NWS

Home | Current Version | Previous Version | Graphics & Text | Print | Product List | Glossary On
Versions: 1 2 3 4 5 6 7 8 9 10 11 12 13 14 15 16 17 18 19 20 21 22 23 24 25 26 27 28
722
FTUS43 KLSX 202229 AAB
TAFSUS
TAF AMD
KSUS 202229Z 2022/2118 32014KT 2SM SHRA OVC015
      TEMPO 2022/2024 BKN008
     FM210000 32009KT 3SM SHRA OVC008
     FM210900 34011G18KT P6SM VCSH OVC008
     FM211200 35010KT P6SM BKN015
     FM211500 36009KT P6SM BKN250=

USA.gov is the U.S. government's official web portal to all federal, state and local government web resources and services.